createdAt,value
2017-10-03T00:02:22.747Z,15.40
2017-10-03T00:04:51.195Z,15.50
2017-10-03T00:07:18.768Z,15.50
2017-10-03T00:09:46.435Z,15.70
2017-10-03T00:12:14.049Z,15.70
2017-10-03T00:14:41.723Z,15.60
2017-10-03T00:17:09.283Z,15.40
2017-10-03T00:19:36.863Z,15.30
2017-10-03T00:22:05.931Z,15.30
2017-10-03T00:24:33.603Z,15.30
2017-10-03T00:27:01.163Z,15.30
2017-10-03T00:29:28.747Z,15.20
2017-10-03T00:31:56.319Z,15.20
2017-10-03T00:34:24.662Z,15.40
2017-10-03T00:36:53.023Z,15.20
2017-10-03T00:39:20.585Z,15.20
2017-10-03T00:41:48.183Z,15.20
2017-10-03T00:44:16.518Z,15.30
2017-10-03T00:46:44.179Z,15.30
2017-10-03T00:49:11.775Z,15.40
2017-10-03T00:51:40.167Z,15.40
2017-10-03T00:54:08.499Z,15.20
2017-10-03T00:56:36.379Z,15.20
2017-10-03T00:59:04.027Z,15.40
2017-10-03T01:01:31.668Z,15.30
2017-10-03T01:03:59.372Z,15.40
2017-10-03T01:06:26.943Z,15.30
2017-10-03T01:08:55.286Z,15.10
2017-10-03T01:11:24.383Z,15.00
2017-10-03T01:13:51.940Z,15.00
2017-10-03T01:16:19.525Z,15.10
2017-10-03T01:18:47.847Z,15.40
2017-10-03T01:21:15.447Z,15.40
2017-10-03T01:23:43.014Z,15.50
2017-10-03T01:26:11.343Z,15.40
2017-10-03T01:28:38.951Z,15.40
2017-10-03T01:31:07.283Z,15.30
2017-10-03T01:33:34.963Z,15.30
2017-10-03T01:36:02.535Z,15.50
2017-10-03T01:38:30.127Z,15.70
2017-10-03T01:40:57.680Z,15.80
2017-10-03T01:43:26.004Z,15.80
2017-10-03T01:45:53.586Z,15.80
2017-10-03T01:48:21.195Z,15.90
2017-10-03T01:50:48.854Z,15.90
2017-10-03T01:53:16.434Z,15.90
2017-10-03T01:55:44.035Z,15.80
2017-10-03T01:58:12.355Z,16.00
2017-10-03T02:00:39.911Z,16.00
2017-10-03T02:03:07.495Z,16.00
2017-10-03T02:05:35.074Z,15.80
2017-10-03T02:08:02.651Z,15.60
2017-10-03T02:10:30.981Z,15.70
2017-10-03T02:12:58.718Z,15.70
2017-10-03T02:15:26.277Z,15.70
2017-10-03T02:17:53.851Z,15.60
2017-10-03T02:20:21.588Z,15.70
2017-10-03T02:22:49.255Z,15.80
2017-10-03T02:25:16.857Z,15.80
2017-10-03T02:27:44.411Z,15.90
2017-10-03T02:30:11.979Z,16.00
2017-10-03T02:32:39.563Z,15.90
2017-10-03T02:35:07.878Z,15.90
2017-10-03T02:37:35.470Z,15.90
2017-10-03T02:40:03.030Z,16.10
2017-10-03T02:42:30.620Z,16.10
2017-10-03T02:44:58.949Z,16.10
2017-10-03T02:47:26.527Z,16.10
2017-10-03T02:49:54.878Z,15.80
2017-10-03T02:52:22.471Z,15.80
2017-10-03T02:54:50.063Z,15.90
2017-10-03T02:57:17.663Z,15.80
2017-10-03T02:59:45.350Z,16.00
2017-10-03T03:02:12.903Z,16.10
2017-10-03T03:04:40.570Z,16.00
2017-10-03T03:07:08.171Z,15.90
2017-10-03T03:09:35.782Z,15.70
2017-10-03T03:12:03.363Z,15.90
2017-10-03T03:14:31.732Z,15.70
2017-10-03T03:17:00.059Z,15.70
2017-10-03T03:19:27.646Z,15.80
2017-10-03T03:21:55.209Z,15.80
2017-10-03T03:24:23.651Z,15.80
2017-10-03T03:26:51.215Z,15.80
2017-10-03T03:29:18.830Z,15.80
2017-10-03T03:31:47.190Z,15.80
2017-10-03T03:34:14.762Z,15.80
2017-10-03T03:36:43.083Z,15.90
2017-10-03T03:39:10.679Z,15.90
2017-10-03T03:41:38.347Z,15.90
2017-10-03T03:44:05.899Z,15.10
2017-10-03T03:46:33.491Z,13.70
2017-10-03T03:49:01.063Z,13.40
2017-10-03T03:51:28.639Z,13.30
2017-10-03T03:53:56.235Z,13.10
2017-10-03T03:56:23.818Z,13.10
2017-10-03T03:58:52.159Z,13.10
2017-10-03T04:01:19.759Z,13.10
2017-10-03T04:03:47.315Z,13.10
2017-10-03T04:06:14.872Z,13.00
2017-10-03T04:08:43.232Z,12.70
2017-10-03T04:11:11.564Z,12.70
2017-10-03T04:13:39.265Z,12.70
2017-10-03T04:16:06.935Z,12.60
2017-10-03T04:18:35.286Z,12.50
2017-10-03T04:21:03.671Z,12.50
2017-10-03T04:23:31.245Z,12.50
2017-10-03T04:25:59.586Z,12.40
2017-10-03T04:28:27.150Z,12.30
2017-10-03T04:30:54.751Z,12.30
2017-10-03T04:33:23.170Z,12.20
2017-10-03T04:35:50.764Z,12.10
2017-10-03T04:38:18.355Z,12.20
2017-10-03T04:40:45.912Z,12.00
2017-10-03T04:43:13.504Z,12.00
2017-10-03T04:45:41.063Z,11.90
2017-10-03T04:48:08.658Z,11.90
2017-10-03T04:50:36.215Z,11.90
2017-10-03T04:53:04.547Z,11.80
2017-10-03T04:55:32.131Z,11.80
2017-10-03T04:57:59.699Z,11.80
2017-10-03T05:00:27.299Z,11.80
2017-10-03T05:02:54.879Z,11.70
2017-10-03T05:05:22.475Z,11.70
2017-10-03T05:07:50.139Z,11.70
2017-10-03T05:10:17.851Z,11.70
2017-10-03T05:12:45.451Z,11.60
2017-10-03T05:15:13.018Z,11.50
2017-10-03T05:17:40.619Z,11.50
2017-10-03T05:20:08.178Z,11.50
2017-10-03T05:22:35.784Z,11.40
2017-10-03T05:25:03.347Z,11.50
2017-10-03T05:27:30.943Z,11.40
2017-10-03T05:29:59.437Z,11.30
2017-10-03T05:32:27.007Z,11.30
2017-10-03T05:34:54.595Z,11.30
2017-10-03T05:37:22.164Z,11.30
2017-10-03T05:39:49.735Z,11.40
2017-10-03T05:42:17.288Z,11.40
2017-10-03T05:44:44.891Z,11.50
2017-10-03T05:47:12.467Z,11.60
2017-10-03T05:49:40.031Z,11.60
2017-10-03T05:52:07.606Z,11.60
2017-10-03T05:54:35.243Z,11.60
2017-10-03T05:57:02.818Z,11.60
2017-10-03T05:59:30.384Z,11.60
2017-10-03T06:01:57.963Z,11.50
2017-10-03T06:04:25.515Z,11.50
2017-10-03T06:06:53.113Z,11.50
2017-10-03T06:09:20.751Z,11.50
2017-10-03T06:11:49.224Z,11.50
2017-10-03T06:14:16.860Z,11.50
2017-10-03T06:16:44.430Z,11.50
2017-10-03T06:19:12.031Z,11.50
2017-10-03T06:21:39.595Z,11.60
2017-10-03T06:24:07.227Z,11.60
2017-10-03T06:26:35.570Z,11.60
2017-10-03T06:29:03.403Z,11.60
2017-10-03T06:31:30.988Z,11.50
2017-10-03T06:33:58.572Z,11.50
2017-10-03T06:36:26.171Z,11.50
2017-10-03T06:38:53.735Z,11.50
2017-10-03T06:41:21.359Z,11.50
2017-10-03T06:43:49.680Z,11.70
2017-10-03T06:46:17.267Z,11.60
2017-10-03T06:48:44.890Z,11.50
2017-10-03T06:51:12.765Z,11.60
2017-10-03T06:53:40.363Z,11.70
2017-10-03T06:56:07.926Z,11.70
2017-10-03T06:58:35.517Z,11.70
2017-10-03T07:01:03.083Z,11.60
2017-10-03T07:03:30.683Z,11.60
2017-10-03T07:05:58.253Z,11.70
2017-10-03T07:08:25.846Z,11.60
2017-10-03T07:10:54.202Z,11.70
2017-10-03T07:13:23.271Z,11.80
2017-10-03T07:15:50.889Z,11.80
2017-10-03T07:18:18.453Z,11.80
2017-10-03T07:20:46.071Z,11.70
2017-10-03T07:23:14.448Z,11.60
2017-10-03T07:25:43.542Z,11.70
2017-10-03T07:28:11.255Z,11.70
2017-10-03T07:30:38.897Z,11.90
2017-10-03T07:33:06.466Z,11.80
2017-10-03T07:35:34.058Z,11.70
2017-10-03T07:38:01.787Z,11.60
2017-10-03T07:40:29.358Z,11.70
2017-10-03T07:42:56.955Z,11.80
2017-10-03T07:45:24.515Z,11.90
2017-10-03T07:47:52.111Z,11.90
2017-10-03T07:50:19.675Z,11.80
2017-10-03T07:52:47.272Z,11.70
2017-10-03T07:55:14.843Z,11.80
2017-10-03T07:57:42.441Z,11.90
2017-10-03T08:00:10.013Z,11.90
2017-10-03T08:02:37.648Z,12.00
2017-10-03T08:05:05.976Z,12.20
2017-10-03T08:07:33.564Z,12.20
2017-10-03T08:10:01.147Z,12.30
2017-10-03T08:12:28.862Z,12.40
2017-10-03T08:14:56.598Z,12.40
2017-10-03T08:17:24.163Z,12.40
2017-10-03T08:19:51.753Z,12.50
2017-10-03T08:22:19.352Z,12.30
2017-10-03T08:24:47.708Z,12.30
2017-10-03T08:27:16.044Z,12.40
2017-10-03T08:29:43.612Z,12.40
2017-10-03T08:32:11.205Z,12.20
2017-10-03T08:34:38.760Z,12.20
2017-10-03T08:37:07.852Z,12.50
2017-10-03T08:39:35.393Z,12.50
2017-10-03T08:42:02.983Z,12.40
2017-10-03T08:44:31.316Z,12.60
2017-10-03T08:46:59.067Z,12.70
2017-10-03T08:49:26.648Z,12.50
2017-10-03T08:51:54.236Z,12.60
2017-10-03T08:54:22.938Z,13.00
2017-10-03T08:56:50.523Z,13.00
2017-10-03T08:59:18.131Z,13.10
2017-10-03T09:01:45.714Z,13.00
2017-10-03T09:04:13.355Z,12.90
2017-10-03T09:06:41.727Z,12.60
2017-10-03T09:09:09.282Z,12.60
2017-10-03T09:11:36.869Z,12.70
2017-10-03T09:14:04.472Z,12.90
2017-10-03T09:16:32.106Z,13.30
2017-10-03T09:18:59.727Z,13.20
2017-10-03T09:21:28.292Z,13.50
2017-10-03T09:23:55.857Z,13.50
2017-10-03T09:26:23.415Z,13.30
2017-10-03T09:28:51.017Z,13.10
2017-10-03T09:31:18.598Z,13.10
2017-10-03T09:33:46.200Z,14.00
2017-10-03T09:36:14.533Z,14.10
2017-10-03T09:38:42.147Z,14.20
2017-10-03T09:41:10.479Z,15.00
2017-10-03T09:43:38.059Z,15.00
2017-10-03T09:46:05.653Z,15.40
2017-10-03T09:48:33.233Z,16.00
2017-10-03T09:51:00.857Z,16.30
2017-10-03T09:53:29.195Z,16.90
2017-10-03T09:55:57.002Z,16.80
2017-10-03T09:58:25.379Z,15.80
2017-10-03T10:00:53.711Z,15.80
2017-10-03T10:03:21.327Z,15.80
2017-10-03T10:05:48.920Z,15.10
2017-10-03T10:08:16.531Z,16.30
2017-10-03T10:10:44.904Z,16.40
2017-10-03T10:13:13.291Z,15.50
2017-10-03T10:15:41.642Z,16.10
2017-10-03T10:18:09.215Z,16.10
2017-10-03T10:20:37.566Z,17.90
2017-10-03T10:23:05.138Z,17.90
2017-10-03T10:25:33.510Z,18.30
2017-10-03T10:28:01.071Z,18.30
2017-10-03T10:30:29.462Z,16.90
2017-10-03T10:32:57.823Z,15.80
2017-10-03T10:35:25.431Z,15.80
2017-10-03T10:37:52.996Z,17.90
2017-10-03T10:40:20.619Z,15.90
2017-10-03T10:42:48.959Z,14.90
2017-10-03T10:45:16.520Z,14.80
2017-10-03T10:47:44.110Z,14.50
2017-10-03T10:50:12.456Z,14.00
2017-10-03T10:52:40.044Z,14.00
2017-10-03T10:55:08.414Z,14.40
2017-10-03T10:57:36.756Z,14.20
2017-10-03T11:00:04.335Z,14.20
2017-10-03T11:02:31.927Z,14.40
2017-10-03T11:04:59.475Z,15.10
2017-10-03T11:07:27.998Z,15.50
2017-10-03T11:09:55.559Z,15.50
2017-10-03T11:12:23.159Z,15.70
2017-10-03T11:14:50.762Z,16.20
2017-10-03T11:17:18.348Z,16.30
2017-10-03T11:19:45.912Z,15.40
2017-10-03T11:22:13.510Z,14.90
2017-10-03T11:24:45.776Z,14.70
2017-10-03T11:27:14.119Z,14.70
2017-10-03T11:29:41.690Z,14.60
2017-10-03T11:32:09.275Z,14.80
2017-10-03T11:34:36.916Z,14.80
2017-10-03T11:37:04.528Z,14.60
2017-10-03T11:39:32.098Z,15.10
2017-10-03T11:41:59.725Z,16.00
2017-10-03T11:44:27.303Z,16.70
2017-10-03T11:46:54.883Z,17.00
2017-10-03T11:49:22.574Z,15.60
2017-10-03T11:51:50.921Z,15.30
2017-10-03T11:54:18.527Z,15.30
2017-10-03T11:56:46.875Z,15.40
2017-10-03T11:59:16.175Z,15.30
2017-10-03T12:01:43.756Z,15.30
2017-10-03T12:04:12.177Z,15.10
2017-10-03T12:06:39.733Z,15.10
2017-10-03T12:09:07.299Z,15.80
2017-10-03T12:11:34.915Z,15.60
2017-10-03T12:14:03.303Z,15.60
2017-10-03T12:16:30.901Z,15.50
2017-10-03T12:18:58.464Z,16.70
2017-10-03T12:21:26.064Z,16.50
2017-10-03T12:23:54.524Z,16.30
2017-10-03T12:26:22.157Z,16.30
2017-10-03T12:28:49.731Z,17.10
2017-10-03T12:31:18.856Z,15.40
2017-10-03T12:33:47.215Z,16.10
2017-10-03T12:36:14.780Z,16.10
2017-10-03T12:38:43.327Z,18.30
2017-10-03T12:41:10.903Z,18.30
2017-10-03T12:43:38.496Z,20.10
2017-10-03T12:46:06.054Z,20.10
2017-10-03T12:48:33.679Z,19.40
2017-10-03T12:51:01.388Z,17.90
2017-10-03T12:53:28.950Z,18.30
2017-10-03T12:55:56.563Z,18.60
2017-10-03T12:58:24.124Z,17.90
2017-10-03T13:00:51.696Z,17.20
2017-10-03T13:03:20.057Z,16.60
2017-10-03T13:05:47.652Z,16.60
2017-10-03T13:08:15.259Z,16.70
2017-10-03T13:10:42.836Z,16.70
2017-10-03T13:13:10.439Z,17.60
2017-10-03T13:15:38.004Z,17.90
2017-10-03T13:18:05.763Z,17.60
2017-10-03T13:20:33.431Z,17.60
2017-10-03T13:23:01.028Z,16.60
2017-10-03T13:25:28.620Z,17.70
2017-10-03T13:27:56.183Z,17.70
2017-10-03T13:30:23.778Z,18.40
2017-10-03T13:32:51.348Z,17.50
2017-10-03T13:35:18.936Z,16.50
2017-10-03T13:37:47.424Z,16.20
2017-10-03T13:40:15.943Z,17.00
2017-10-03T13:42:43.502Z,16.90
2017-10-03T13:45:11.067Z,16.00
2017-10-03T13:47:38.664Z,15.90
2017-10-03T13:50:06.222Z,15.90
2017-10-03T13:52:33.835Z,16.20
2017-10-03T13:55:01.400Z,17.00
2017-10-03T13:57:28.999Z,17.20
2017-10-03T13:59:56.583Z,17.50
2017-10-03T14:02:24.320Z,16.50
2017-10-03T14:04:51.918Z,17.10
2017-10-03T14:07:19.488Z,16.80
2017-10-03T14:09:47.086Z,16.60
2017-10-03T14:12:14.643Z,16.30
2017-10-03T14:14:42.244Z,16.20
2017-10-03T14:17:09.924Z,15.90
2017-10-03T14:19:37.498Z,16.20
2017-10-03T14:22:05.095Z,15.80
2017-10-03T14:24:32.665Z,15.70
2017-10-03T14:27:01.036Z,15.50
2017-10-03T14:29:29.357Z,16.40
2017-10-03T14:31:56.962Z,16.40
2017-10-03T14:34:24.543Z,17.30
2017-10-03T14:36:52.123Z,17.80
2017-10-03T14:39:19.725Z,17.40
2017-10-03T14:41:47.295Z,17.80
2017-10-03T14:44:14.888Z,18.60
2017-10-03T14:46:42.471Z,18.20
2017-10-03T14:49:10.055Z,19.50
2017-10-03T14:51:37.633Z,17.90
2017-10-03T14:54:05.239Z,17.40
2017-10-03T14:56:32.823Z,16.80
2017-10-03T14:59:00.388Z,16.20
2017-10-03T15:01:27.990Z,16.00
2017-10-03T15:03:55.578Z,16.30
2017-10-03T15:06:23.188Z,15.60
2017-10-03T15:08:51.523Z,15.60
2017-10-03T15:11:19.243Z,15.60
2017-10-03T15:13:47.592Z,16.20
2017-10-03T15:16:15.168Z,16.20
2017-10-03T15:18:43.523Z,16.00
2017-10-03T15:21:11.100Z,16.10
2017-10-03T15:23:39.631Z,15.50
2017-10-03T15:26:07.245Z,15.40
2017-10-03T15:28:35.632Z,15.40
2017-10-03T15:31:03.234Z,15.30
2017-10-03T15:33:30.827Z,15.70
2017-10-03T15:35:58.505Z,16.10
2017-10-03T15:38:26.844Z,15.70
2017-10-03T15:40:54.450Z,15.60
2017-10-03T15:43:22.011Z,15.80
2017-10-03T15:45:49.604Z,16.10
2017-10-03T15:48:17.176Z,15.70
2017-10-03T15:50:44.875Z,15.50
2017-10-03T15:53:13.354Z,15.60
2017-10-03T15:55:41.698Z,15.40
2017-10-03T15:58:09.395Z,15.40
2017-10-03T16:00:37.787Z,15.20
2017-10-03T16:03:05.393Z,15.20
2017-10-03T16:05:32.987Z,15.20
2017-10-03T16:08:01.361Z,15.20
2017-10-03T16:10:29.735Z,15.20
2017-10-03T16:12:58.076Z,15.20
2017-10-03T16:15:25.692Z,15.10
2017-10-03T16:17:53.279Z,15.20
2017-10-03T16:20:20.900Z,15.10
2017-10-03T16:22:49.271Z,15.00
2017-10-03T16:25:17.620Z,15.10
2017-10-03T16:27:46.706Z,15.00
2017-10-03T16:30:14.392Z,15.00
2017-10-03T16:32:42.019Z,15.00
2017-10-03T16:35:09.584Z,15.30
2017-10-03T16:37:37.171Z,15.30
2017-10-03T16:40:05.503Z,15.10
2017-10-03T16:42:33.072Z,15.10
2017-10-03T16:45:00.727Z,14.90
2017-10-03T16:47:28.291Z,14.70
2017-10-03T16:49:55.887Z,14.80
2017-10-03T16:52:24.220Z,14.70
2017-10-03T16:54:51.816Z,14.70
2017-10-03T16:57:20.147Z,14.70
2017-10-03T16:59:47.744Z,14.70
2017-10-03T17:02:15.327Z,14.60
2017-10-03T17:04:43.700Z,14.70
2017-10-03T17:07:12.067Z,14.70
2017-10-03T17:09:40.407Z,14.60
2017-10-03T17:12:08.007Z,14.60
2017-10-03T17:14:36.351Z,14.40
2017-10-03T17:17:03.923Z,14.30
2017-10-03T17:19:31.549Z,14.10
2017-10-03T17:21:59.123Z,14.10
2017-10-03T17:24:26.707Z,14.10
2017-10-03T17:26:54.260Z,14.30
2017-10-03T17:29:21.872Z,14.40
2017-10-03T17:31:49.480Z,14.40
2017-10-03T17:34:17.049Z,14.30
2017-10-03T17:36:45.488Z,14.40
2017-10-03T17:39:13.099Z,14.40
2017-10-03T17:41:41.481Z,14.30
2017-10-03T17:44:09.051Z,14.30
2017-10-03T17:46:36.644Z,14.30
2017-10-03T17:49:04.240Z,14.20
2017-10-03T17:51:32.612Z,14.40
2017-10-03T17:54:00.208Z,14.30
2017-10-03T17:56:27.794Z,14.30
2017-10-03T17:58:55.419Z,14.00
2017-10-03T18:01:22.996Z,14.10
2017-10-03T18:03:50.559Z,14.00
2017-10-03T18:06:18.154Z,14.20
2017-10-03T18:08:45.773Z,14.10
2017-10-03T18:11:13.364Z,14.00
2017-10-03T18:13:40.947Z,14.10
2017-10-03T18:16:09.319Z,14.10
2017-10-03T18:18:37.812Z,14.10
2017-10-03T18:21:06.167Z,14.10
2017-10-03T18:23:34.531Z,14.00
2017-10-03T18:26:02.149Z,14.00
2017-10-03T18:28:29.731Z,14.00
2017-10-03T18:30:57.343Z,14.00
2017-10-03T18:33:25.751Z,14.00
2017-10-03T18:35:53.366Z,14.10
2017-10-03T18:38:20.952Z,14.00
2017-10-03T18:40:48.524Z,14.00
2017-10-03T18:43:16.101Z,13.90
2017-10-03T18:45:43.672Z,13.80
2017-10-03T18:48:11.295Z,13.80
2017-10-03T18:50:38.935Z,13.80
2017-10-03T18:53:07.288Z,13.70
2017-10-03T18:55:36.426Z,13.70
2017-10-03T18:58:04.009Z,13.70
2017-10-03T19:00:31.613Z,13.70
2017-10-03T19:02:59.180Z,13.60
2017-10-03T19:05:27.569Z,13.40
2017-10-03T19:07:55.136Z,13.40
2017-10-03T19:10:22.739Z,13.30
2017-10-03T19:12:50.344Z,13.30
2017-10-03T19:15:17.925Z,13.20
2017-10-03T19:17:45.553Z,13.10
2017-10-03T19:20:13.902Z,13.00
2017-10-03T19:22:41.481Z,13.00
2017-10-03T19:25:09.834Z,12.90
2017-10-03T19:27:37.410Z,12.90
2017-10-03T19:30:05.239Z,12.80
2017-10-03T19:32:32.845Z,12.70
2017-10-03T19:35:01.180Z,12.70
2017-10-03T19:37:28.927Z,12.60
2017-10-03T19:39:56.652Z,12.60
2017-10-03T19:42:25.004Z,12.60
2017-10-03T19:44:54.100Z,12.50
2017-10-03T19:47:21.729Z,12.50
2017-10-03T19:49:49.325Z,12.40
2017-10-03T19:52:16.901Z,12.40
2017-10-03T19:54:45.283Z,12.30
2017-10-03T19:57:12.893Z,12.30
2017-10-03T19:59:40.468Z,12.20
2017-10-03T20:02:08.076Z,12.20
2017-10-03T20:04:35.655Z,12.20
2017-10-03T20:07:03.256Z,12.10
2017-10-03T20:09:30.847Z,12.10
2017-10-03T20:11:58.447Z,12.00
2017-10-03T20:14:26.125Z,12.00
2017-10-03T20:16:53.704Z,12.00
2017-10-03T20:19:22.080Z,11.90
2017-10-03T20:21:50.408Z,12.00
2017-10-03T20:24:18.028Z,11.90
2017-10-03T20:26:45.616Z,11.90
2017-10-03T20:29:13.200Z,11.90
2017-10-03T20:31:40.803Z,11.80
2017-10-03T20:34:09.140Z,11.70
2017-10-03T20:36:36.882Z,11.70
2017-10-03T20:39:04.468Z,11.70
2017-10-03T20:41:32.094Z,11.70
2017-10-03T20:43:59.744Z,11.60
2017-10-03T20:46:27.357Z,11.60
2017-10-03T20:48:54.939Z,11.60
2017-10-03T20:51:22.526Z,11.60
2017-10-03T20:53:50.199Z,11.60
2017-10-03T20:56:17.847Z,11.50
2017-10-03T20:58:45.471Z,11.50
2017-10-03T21:01:13.813Z,11.50
2017-10-03T21:03:41.393Z,11.50
2017-10-03T21:06:09.859Z,11.40
2017-10-03T21:08:37.544Z,11.40
2017-10-03T21:11:06.140Z,11.30
2017-10-03T21:13:33.730Z,11.30
2017-10-03T21:16:01.395Z,11.30
2017-10-03T21:18:28.993Z,11.30
2017-10-03T21:20:56.583Z,11.30
2017-10-03T21:23:24.172Z,11.20
2017-10-03T21:25:51.745Z,11.20
2017-10-03T21:28:19.355Z,11.20
2017-10-03T21:30:47.043Z,11.20
2017-10-03T21:33:14.635Z,11.20
2017-10-03T21:35:42.215Z,11.20
2017-10-03T21:38:10.625Z,11.20
2017-10-03T21:40:38.196Z,11.20
2017-10-03T21:43:11.820Z,11.20
2017-10-03T21:45:39.499Z,11.10
2017-10-03T21:48:07.846Z,11.20
2017-10-03T21:50:35.444Z,11.20
2017-10-03T21:53:03.879Z,11.00
2017-10-03T21:55:31.471Z,11.00
2017-10-03T21:57:59.035Z,11.10
2017-10-03T22:00:27.372Z,11.10
2017-10-03T22:02:54.979Z,11.10
2017-10-03T22:05:23.514Z,11.00
2017-10-03T22:07:51.212Z,11.00
2017-10-03T22:10:18.775Z,11.10
2017-10-03T22:12:47.147Z,11.10
2017-10-03T22:15:14.712Z,11.10
2017-10-03T22:17:43.051Z,10.50
2017-10-03T22:20:10.652Z,10.40
2017-10-03T22:22:38.987Z,10.20
2017-10-03T22:25:06.575Z,10.20
2017-10-03T22:27:34.149Z,10.20
2017-10-03T22:30:02.524Z,10.10
2017-10-03T22:32:30.928Z,10.10
2017-10-03T22:34:58.543Z,10.10
2017-10-03T22:37:26.124Z,10.10
2017-10-03T22:39:54.733Z,10.40
2017-10-03T22:42:22.321Z,10.40
2017-10-03T22:44:49.904Z,10.50
2017-10-03T22:47:17.531Z,10.50
2017-10-03T22:49:45.105Z,10.30
2017-10-03T22:52:18.331Z,10.10
2017-10-03T22:54:46.688Z,9.80
2017-10-03T22:57:14.246Z,9.70
2017-10-03T22:59:41.851Z,9.70
2017-10-03T23:02:09.435Z,9.70
2017-10-03T23:04:37.139Z,9.70
2017-10-03T23:07:05.587Z,9.60
2017-10-03T23:09:33.152Z,9.60
2017-10-03T23:12:00.735Z,9.70
2017-10-03T23:14:29.074Z,9.50
2017-10-03T23:16:56.667Z,9.50
2017-10-03T23:19:24.991Z,9.80
2017-10-03T23:21:52.595Z,9.80
2017-10-03T23:24:20.211Z,10.00
2017-10-03T23:26:47.795Z,10.10
2017-10-03T23:29:15.391Z,10.10
2017-10-03T23:31:43.720Z,10.10
2017-10-03T23:34:11.367Z,10.10
2017-10-03T23:36:38.967Z,10.10
2017-10-03T23:39:06.532Z,9.90
2017-10-03T23:41:34.899Z,9.70
2017-10-03T23:44:02.470Z,9.70
2017-10-03T23:46:30.833Z,9.60
2017-10-03T23:48:58.403Z,9.60
2017-10-03T23:51:26.728Z,9.60
2017-10-03T23:53:54.307Z,9.50
2017-10-03T23:56:21.870Z,9.50
2017-10-03T23:58:49.461Z,9.50
